sensor_id;sensor_type;location;lat;lon;timestamp;pressure;altitude;pressure_sealevel;temperature;humidity
51229;BME280;37304;52.216;6.874;2023-02-13T00:02:28;103490.53;;;6.40;100.00
51229;BME280;37304;52.216;6.874;2023-02-13T00:07:28;103479.25;;;6.38;100.00
51229;BME280;37304;52.216;6.874;2023-02-13T00:12:29;103477.28;;;6.33;100.00
51229;BME280;37304;52.216;6.874;2023-02-13T00:17:31;103471.09;;;6.29;100.00
51229;BME280;37304;52.216;6.874;2023-02-13T00:22:35;103471.84;;;6.26;100.00
51229;BME280;37304;52.216;6.874;2023-02-13T00:27:36;103471.63;;;6.22;100.00
51229;BME280;37304;52.216;6.874;2023-02-13T00:32:36;103469.94;;;6.22;100.00
51229;BME280;37304;52.216;6.874;2023-02-13T00:37:36;103464.31;;;6.11;100.00
51229;BME280;37304;52.216;6.874;2023-02-13T00:42:37;103465.13;;;6.10;100.00
51229;BME280;37304;52.216;6.874;2023-02-13T00:47:37;103465.13;;;6.10;100.00
51229;BME280;37304;52.216;6.874;2023-02-13T00:52:37;103464.25;;;6.10;100.00
51229;BME280;37304;52.216;6.874;2023-02-13T00:57:38;103466.75;;;6.08;100.00
51229;BME280;37304;52.216;6.874;2023-02-13T01:02:38;103466.63;;;6.05;100.00
51229;BME280;37304;52.216;6.874;2023-02-13T01:07:38;103478.66;;;6.05;100.00
51229;BME280;37304;52.216;6.874;2023-02-13T01:12:39;103471.91;;;6.08;100.00
51229;BME280;37304;52.216;6.874;2023-02-13T01:17:39;103473.69;;;6.09;100.00
51229;BME280;37304;52.216;6.874;2023-02-13T01:22:40;103474.44;;;6.07;100.00
51229;BME280;37304;52.216;6.874;2023-02-13T01:27:43;103462.28;;;6.04;100.00
51229;BME280;37304;52.216;6.874;2023-02-13T01:32:45;103463.31;;;6.08;100.00
51229;BME280;37304;52.216;6.874;2023-02-13T01:37:46;103464.03;;;6.05;100.00
51229;BME280;37304;52.216;6.874;2023-02-13T01:42:46;103456.28;;;6.05;100.00
51229;BME280;37304;52.216;6.874;2023-02-13T01:47:50;103457.06;;;6.03;100.00
51229;BME280;37304;52.216;6.874;2023-02-13T01:53:31;103450.81;;;5.99;100.00
51229;BME280;37304;52.216;6.874;2023-02-13T01:58:34;103453.34;;;5.97;100.00
51229;BME280;37304;52.216;6.874;2023-02-13T02:08:36;103451.59;;;5.96;100.00
51229;BME280;37304;52.216;6.874;2023-02-13T02:13:38;103446.56;;;6.00;100.00
51229;BME280;37304;52.216;6.874;2023-02-13T02:18:38;103444.72;;;5.97;100.00
51229;BME280;37304;52.216;6.874;2023-02-13T02:45:28;103430.94;;;5.96;100.00
51229;BME280;37304;52.216;6.874;2023-02-13T02:55:40;103431.06;;;6.00;100.00
51229;BME280;37304;52.216;6.874;2023-02-13T03:00:42;103431.16;;;6.01;100.00
51229;BME280;37304;52.216;6.874;2023-02-13T03:06:05;103417.44;;;6.02;100.00
51229;BME280;37304;52.216;6.874;2023-02-13T03:11:11;103426.94;;;6.03;100.00
51229;BME280;37304;52.216;6.874;2023-02-13T03:16:29;103427.97;;;6.07;100.00
51229;BME280;37304;52.216;6.874;2023-02-13T03:21:57;103425.31;;;6.05;100.00
51229;BME280;37304;52.216;6.874;2023-02-13T03:27:27;103432.19;;;6.05;100.00
51229;BME280;37304;52.216;6.874;2023-02-13T03:32:58;103433.88;;;6.04;100.00
51229;BME280;37304;52.216;6.874;2023-02-13T03:38:07;103436.59;;;6.07;100.00
51229;BME280;37304;52.216;6.874;2023-02-13T03:43:14;103437.75;;;6.14;100.00
51229;BME280;37304;52.216;6.874;2023-02-13T03:48:19;103436.13;;;6.16;100.00
51229;BME280;37304;52.216;6.874;2023-02-13T03:53:41;103431.78;;;6.15;100.00
51229;BME280;37304;52.216;6.874;2023-02-13T03:58:47;103443.78;;;6.15;100.00
51229;BME280;37304;52.216;6.874;2023-02-13T04:04:08;103428.25;;;6.13;100.00
51229;BME280;37304;52.216;6.874;2023-02-13T04:09:10;103436.03;;;6.15;100.00
51229;BME280;37304;52.216;6.874;2023-02-13T04:14:22;103436.13;;;6.16;100.00
51229;BME280;37304;52.216;6.874;2023-02-13T04:19:24;103440.38;;;6.16;100.00
51229;BME280;37304;52.216;6.874;2023-02-13T04:24:26;103430.00;;;6.14;100.00
51229;BME280;37304;52.216;6.874;2023-02-13T04:29:27;103429.38;;;6.20;100.00
51229;BME280;37304;52.216;6.874;2023-02-13T04:34:27;103434.53;;;6.20;100.00
51229;BME280;37304;52.216;6.874;2023-02-13T04:39:27;103431.91;;;6.18;100.00
51229;BME280;37304;52.216;6.874;2023-02-13T04:44:28;103434.41;;;6.17;100.00
51229;BME280;37304;52.216;6.874;2023-02-13T04:49:28;103428.28;;;6.15;100.00
51229;BME280;37304;52.216;6.874;2023-02-13T04:54:28;103425.72;;;6.15;100.00
51229;BME280;37304;52.216;6.874;2023-02-13T04:59:29;103413.69;;;6.15;100.00
51229;BME280;37304;52.216;6.874;2023-02-13T05:04:29;103426.66;;;6.17;100.00
51229;BME280;37304;52.216;6.874;2023-02-13T05:09:30;103424.88;;;6.16;100.00
51229;BME280;37304;52.216;6.874;2023-02-13T05:14:30;103414.56;;;6.16;100.00
51229;BME280;37304;52.216;6.874;2023-02-13T05:19:30;103410.22;;;6.15;100.00
51229;BME280;37304;52.216;6.874;2023-02-13T05:24:31;103416.19;;;6.14;100.00
51229;BME280;37304;52.216;6.874;2023-02-13T05:29:31;103416.16;;;6.12;100.00
51229;BME280;37304;52.216;6.874;2023-02-13T05:34:31;103419.00;;;6.18;100.00
51229;BME280;37304;52.216;6.874;2023-02-13T05:39:32;103405.06;;;6.15;100.00
51229;BME280;37304;52.216;6.874;2023-02-13T05:44:32;103413.75;;;6.17;100.00
51229;BME280;37304;52.216;6.874;2023-02-13T05:49:35;103406.78;;;6.14;100.00
51229;BME280;37304;52.216;6.874;2023-02-13T05:54:36;103412.88;;;6.16;100.00
51229;BME280;37304;52.216;6.874;2023-02-13T05:59:37;103412.94;;;6.18;100.00
51229;BME280;37304;52.216;6.874;2023-02-13T06:04:37;103409.47;;;6.17;100.00
51229;BME280;37304;52.216;6.874;2023-02-13T06:09:38;103418.22;;;6.21;100.00
51229;BME280;37304;52.216;6.874;2023-02-13T06:14:39;103421.56;;;6.18;100.00
51229;BME280;37304;52.216;6.874;2023-02-13T06:19:39;103430.00;;;6.14;100.00
51229;BME280;37304;52.216;6.874;2023-02-13T06:24:39;103436.03;;;6.15;100.00
51229;BME280;37304;52.216;6.874;2023-02-13T06:29:40;103431.78;;;6.15;100.00
51229;BME280;37304;52.216;6.874;2023-02-13T06:34:40;103439.56;;;6.17;100.00
51229;BME280;37304;52.216;6.874;2023-02-13T06:39:40;103441.41;;;6.19;100.00
51229;BME280;37304;52.216;6.874;2023-02-13T06:44:41;103438.06;;;6.22;100.00
51229;BME280;37304;52.216;6.874;2023-02-13T06:49:42;103444.88;;;6.20;100.00
51229;BME280;37304;52.216;6.874;2023-02-13T06:54:42;103463.16;;;6.24;100.00
51229;BME280;37304;52.216;6.874;2023-02-13T06:59:42;103452.88;;;6.26;100.00
51229;BME280;37304;52.216;6.874;2023-02-13T07:04:43;103466.81;;;6.30;100.00
51229;BME280;37304;52.216;6.874;2023-02-13T07:09:46;103463.28;;;6.28;100.00
51229;BME280;37304;52.216;6.874;2023-02-13T07:14:46;103465.31;;;6.35;100.00
51229;BME280;37304;52.216;6.874;2023-02-13T07:19:46;103461.78;;;6.33;100.00
51229;BME280;37304;52.216;6.874;2023-02-13T07:24:47;103473.03;;;6.33;100.00
51229;BME280;37304;52.216;6.874;2023-02-13T07:29:47;103472.34;;;6.37;100.00
51229;BME280;37304;52.216;6.874;2023-02-13T07:34:47;103475.09;;;6.42;100.00
51229;BME280;37304;52.216;6.874;2023-02-13T07:39:48;103466.91;;;6.52;100.00
51229;BME280;37304;52.216;6.874;2023-02-13T07:44:48;103473.81;;;6.52;100.00
51229;BME280;37304;52.216;6.874;2023-02-13T07:49:49;103477.19;;;6.51;100.00
51229;BME280;37304;52.216;6.874;2023-02-13T07:54:49;103475.56;;;6.53;100.00
51229;BME280;37304;52.216;6.874;2023-02-13T07:59:50;103472.44;;;6.60;100.00
51229;BME280;37304;52.216;6.874;2023-02-13T08:04:50;103474.56;;;6.70;100.00
51229;BME280;37304;52.216;6.874;2023-02-13T08:09:51;103475.53;;;6.73;100.00
51229;BME280;37304;52.216;6.874;2023-02-13T08:15:14;103468.41;;;6.88;100.00
51229;BME280;37304;52.216;6.874;2023-02-13T08:20:14;103465.75;;;6.87;100.00
51229;BME280;37304;52.216;6.874;2023-02-13T08:25:15;103461.72;;;6.93;100.00
51229;BME280;37304;52.216;6.874;2023-02-13T08:30:15;103462.94;;;7.02;100.00
51229;BME280;37304;52.216;6.874;2023-02-13T08:35:16;103463.09;;;7.06;100.00
51229;BME280;37304;52.216;6.874;2023-02-13T08:40:16;103470.47;;;7.18;100.00
51229;BME280;37304;52.216;6.874;2023-02-13T08:45:17;103472.69;;;7.30;100.00
51229;BME280;37304;52.216;6.874;2023-02-13T08:50:17;103469.13;;;7.28;100.00
51229;BME280;37304;52.216;6.874;2023-02-13T08:55:18;103471.06;;;7.34;100.00
51229;BME280;37304;52.216;6.874;2023-02-13T09:00:19;103479.97;;;7.40;100.00
51229;BME280;37304;52.216;6.874;2023-02-13T09:05:19;103473.56;;;7.53;100.00
51229;BME280;37304;52.216;6.874;2023-02-13T09:10:20;103470.31;;;7.59;100.00
51229;BME280;37304;52.216;6.874;2023-02-13T09:15:20;103472.84;;;7.57;100.00
51229;BME280;37304;52.216;6.874;2023-02-13T09:20:21;103468.09;;;7.68;100.00
51229;BME280;37304;52.216;6.874;2023-02-13T09:25:21;103476.88;;;7.72;100.00
51229;BME280;37304;52.216;6.874;2023-02-13T09:30:22;103481.00;;;7.91;100.00
51229;BME280;37304;52.216;6.874;2023-02-13T09:35:22;103480.66;;;8.05;100.00
51229;BME280;37304;52.216;6.874;2023-02-13T09:40:30;103480.19;;;8.16;100.00
51229;BME280;37304;52.216;6.874;2023-02-13T09:45:31;103476.84;;;8.19;100.00
51229;BME280;37304;52.216;6.874;2023-02-13T09:50:33;103482.78;;;8.16;100.00
51229;BME280;37304;52.216;6.874;2023-02-13T09:55:48;103476.00;;;8.20;100.00
51229;BME280;37304;52.216;6.874;2023-02-13T10:00:55;103484.03;;;8.28;100.00
51229;BME280;37304;52.216;6.874;2023-02-13T10:06:23;103479.03;;;8.33;100.00
51229;BME280;37304;52.216;6.874;2023-02-13T10:12:03;103476.13;;;8.48;100.00
51229;BME280;37304;52.216;6.874;2023-02-13T10:17:43;103482.06;;;8.69;100.00
51229;BME280;37304;52.216;6.874;2023-02-13T10:22:52;103485.06;;;8.56;100.00
51229;BME280;37304;52.216;6.874;2023-02-13T10:28:10;103481.53;;;8.29;100.00
51229;BME280;37304;52.216;6.874;2023-02-13T10:33:16;103469.88;;;8.42;100.00
51229;BME280;37304;52.216;6.874;2023-02-13T10:38:20;103463.22;;;8.49;100.00
51229;BME280;37304;52.216;6.874;2023-02-13T10:43:26;103465.28;;;8.59;100.00
51229;BME280;37304;52.216;6.874;2023-02-13T10:48:55;103460.84;;;8.81;100.00
51229;BME280;37304;52.216;6.874;2023-02-13T10:54:28;103448.53;;;9.01;100.00
51229;BME280;37304;52.216;6.874;2023-02-13T11:10:18;103446.63;;;8.96;100.00
51229;BME280;37304;52.216;6.874;2023-02-13T11:15:28;103439.91;;;9.30;100.00
51229;BME280;37304;52.216;6.874;2023-02-13T11:25:34;103434.22;;;11.47;100.00
51229;BME280;37304;52.216;6.874;2023-02-13T11:30:36;103419.25;;;11.36;100.00
51229;BME280;37304;52.216;6.874;2023-02-13T11:35:37;103410.53;;;10.58;100.00
51229;BME280;37304;52.216;6.874;2023-02-13T11:40:37;103411.56;;;10.32;100.00
51229;BME280;37304;52.216;6.874;2023-02-13T11:45:38;103405.44;;;10.29;100.00
51229;BME280;37304;52.216;6.874;2023-02-13T11:50:38;103412.09;;;10.19;100.00
51229;BME280;37304;52.216;6.874;2023-02-13T11:55:39;103408.44;;;10.11;100.00
51229;BME280;37304;52.216;6.874;2023-02-13T12:00:42;103405.09;;;10.16;100.00
51229;BME280;37304;52.216;6.874;2023-02-13T12:06:19;103399.34;;;10.28;100.00
51229;BME280;37304;52.216;6.874;2023-02-13T12:16:35;103400.34;;;10.33;100.00
51229;BME280;37304;52.216;6.874;2023-02-13T12:27:25;103378.56;;;9.95;100.00
51229;BME280;37304;52.216;6.874;2023-02-13T12:33:04;103383.84;;;9.35;100.00
51229;BME280;37304;52.216;6.874;2023-02-13T13:04:19;103353.59;;;8.79;100.00
51229;BME280;37304;52.216;6.874;2023-02-13T13:14:56;103343.47;;;8.87;100.00
51229;BME280;37304;52.216;6.874;2023-02-13T13:25:34;103328.38;;;13.88;100.00
51229;BME280;37304;52.216;6.874;2023-02-13T13:30:38;103322.38;;;13.96;100.00
51229;BME280;37304;52.216;6.874;2023-02-13T13:35:44;103313.34;;;14.70;100.00
51229;BME280;37304;52.216;6.874;2023-02-13T13:41:10;103316.09;;;14.93;100.00
51229;BME280;37304;52.216;6.874;2023-02-13T13:46:16;103306.34;;;12.28;100.00
51229;BME280;37304;52.216;6.874;2023-02-13T13:51:20;103316.09;;;12.40;100.00
51229;BME280;37304;52.216;6.874;2023-02-13T13:56:21;103299.88;;;11.58;100.00
51229;BME280;37304;52.216;6.874;2023-02-13T14:01:31;103301.13;;;10.90;100.00
51229;BME280;37304;52.216;6.874;2023-02-13T14:11:44;103293.78;;;10.33;100.00
51229;BME280;37304;52.216;6.874;2023-02-13T14:16:45;103294.19;;;10.15;100.00
51229;BME280;37304;52.216;6.874;2023-02-13T14:21:46;103289.09;;;9.85;100.00
51229;BME280;37304;52.216;6.874;2023-02-13T14:26:52;103286.47;;;9.83;100.00
51229;BME280;37304;52.216;6.874;2023-02-13T14:32:00;103275.47;;;9.60;100.00
51229;BME280;37304;52.216;6.874;2023-02-13T14:37:14;103275.25;;;9.52;100.00
51229;BME280;37304;52.216;6.874;2023-02-13T14:42:29;103267.38;;;9.47;100.00
51229;BME280;37304;52.216;6.874;2023-02-13T14:52:37;103266.50;;;9.16;100.00
51229;BME280;37304;52.216;6.874;2023-02-13T14:57:49;103270.69;;;9.11;100.00
51229;BME280;37304;52.216;6.874;2023-02-13T15:02:55;103270.66;;;9.10;100.00
51229;BME280;37304;52.216;6.874;2023-02-13T15:08:06;103276.63;;;9.07;100.00
51229;BME280;37304;52.216;6.874;2023-02-13T15:13:34;103274.50;;;8.94;100.00
51229;BME280;37304;52.216;6.874;2023-02-13T15:18:56;103263.25;;;8.93;100.00
51229;BME280;37304;52.216;6.874;2023-02-13T15:23:57;103264.06;;;8.92;100.00
51229;BME280;37304;52.216;6.874;2023-02-13T15:29:02;103262.13;;;8.83;100.00
51229;BME280;37304;52.216;6.874;2023-02-13T15:34:02;103260.19;;;8.76;100.00
51229;BME280;37304;52.216;6.874;2023-02-13T15:39:05;103256.50;;;8.69;100.00
51229;BME280;37304;52.216;6.874;2023-02-13T15:44:30;103247.72;;;8.64;100.00
51229;BME280;37304;52.216;6.874;2023-02-13T15:49:37;103252.97;;;8.66;100.00
51229;BME280;37304;52.216;6.874;2023-02-13T15:54:50;103244.03;;;8.57;100.00
51229;BME280;37304;52.216;6.874;2023-02-13T15:59:50;103244.78;;;8.53;100.00
51229;BME280;37304;52.216;6.874;2023-02-13T16:04:53;103239.09;;;8.38;100.00
51229;BME280;37304;52.216;6.874;2023-02-13T16:10:14;103235.22;;;8.25;100.00
51229;BME280;37304;52.216;6.874;2023-02-13T16:15:17;103234.31;;;8.23;100.00
51229;BME280;37304;52.216;6.874;2023-02-13T16:20:20;103239.16;;;8.12;100.00
51229;BME280;37304;52.216;6.874;2023-02-13T16:25:34;103236.22;;;8.01;100.00
51229;BME280;37304;52.216;6.874;2023-02-13T16:30:41;103238.50;;;7.92;100.00
51229;BME280;37304;52.216;6.874;2023-02-13T16:36:15;103233.03;;;7.82;100.00
51229;BME280;37304;52.216;6.874;2023-02-13T16:51:38;103241.47;;;7.52;100.00
51229;BME280;37304;52.216;6.874;2023-02-13T16:56:43;103245.47;;;7.42;100.00
51229;BME280;37304;52.216;6.874;2023-02-13T17:01:44;103237.16;;;7.27;100.00
51229;BME280;37304;52.216;6.874;2023-02-13T17:06:44;103240.31;;;7.18;100.00
51229;BME280;37304;52.216;6.874;2023-02-13T17:11:48;103239.03;;;7.07;100.00
51229;BME280;37304;52.216;6.874;2023-02-13T17:16:49;103256.25;;;7.06;100.00
51229;BME280;37304;52.216;6.874;2023-02-13T17:21:50;103261.81;;;6.94;100.00
51229;BME280;37304;52.216;6.874;2023-02-13T17:26:52;103265.22;;;6.93;100.00
51229;BME280;37304;52.216;6.874;2023-02-13T17:31:54;103259.84;;;6.87;100.00
51229;BME280;37304;52.216;6.874;2023-02-13T17:36:56;103262.66;;;6.70;100.00
51229;BME280;37304;52.216;6.874;2023-02-13T17:41:56;103261.59;;;6.65;100.00
51229;BME280;37304;52.216;6.874;2023-02-13T17:46:56;103257.72;;;6.54;100.00
51229;BME280;37304;52.216;6.874;2023-02-13T17:51:57;103261.72;;;6.46;100.00
51229;BME280;37304;52.216;6.874;2023-02-13T17:56:58;103275.63;;;6.49;100.00
51229;BME280;37304;52.216;6.874;2023-02-13T18:01:59;103282.06;;;6.38;100.00
51229;BME280;37304;52.216;6.874;2023-02-13T18:06:59;103288.94;;;6.37;100.00
51229;BME280;37304;52.216;6.874;2023-02-13T18:12:00;103293.09;;;6.34;100.00
51229;BME280;37304;52.216;6.874;2023-02-13T18:17:00;103285.53;;;6.38;100.00
51229;BME280;37304;52.216;6.874;2023-02-13T18:22:00;103287.06;;;6.33;100.00
51229;BME280;37304;52.216;6.874;2023-02-13T18:27:01;103283.34;;;6.26;100.00
51229;BME280;37304;52.216;6.874;2023-02-13T18:32:02;103287.56;;;6.24;100.00
51229;BME280;37304;52.216;6.874;2023-02-13T18:37:03;103280.25;;;6.14;100.00
51229;BME280;37304;52.216;6.874;2023-02-13T18:42:04;103276.28;;;6.01;100.00
51229;BME280;37304;52.216;6.874;2023-02-13T18:47:05;103261.25;;;5.92;100.00
51229;BME280;37304;52.216;6.874;2023-02-13T18:52:06;103276.22;;;5.80;100.00
51229;BME280;37304;52.216;6.874;2023-02-13T18:57:06;103267.34;;;5.73;100.00
51229;BME280;37304;52.216;6.874;2023-02-13T19:02:08;103263.94;;;5.74;100.00
51229;BME280;37304;52.216;6.874;2023-02-13T19:07:09;103260.91;;;5.63;100.00
51229;BME280;37304;52.216;6.874;2023-02-13T19:12:09;103252.81;;;5.56;100.00
51229;BME280;37304;52.216;6.874;2023-02-13T19:17:09;103252.69;;;5.52;100.00
51229;BME280;37304;52.216;6.874;2023-02-13T19:22:10;103248.22;;;5.48;100.00
51229;BME280;37304;52.216;6.874;2023-02-13T19:27:10;103251.72;;;5.50;100.00
51229;BME280;37304;52.216;6.874;2023-02-13T19:32:11;103253.31;;;5.47;100.00
51229;BME280;37304;52.216;6.874;2023-02-13T19:37:11;103256.50;;;5.41;100.00
51229;BME280;37304;52.216;6.874;2023-02-13T19:42:12;103262.16;;;5.32;100.00
51229;BME280;37304;52.216;6.874;2023-02-13T19:47:12;103260.91;;;5.24;100.00
51229;BME280;37304;52.216;6.874;2023-02-13T19:52:12;103265.09;;;5.22;100.00
51229;BME280;37304;52.216;6.874;2023-02-13T19:57:13;103264.91;;;5.17;100.00
51229;BME280;37304;52.216;6.874;2023-02-13T20:02:14;103269.03;;;5.14;100.00
51229;BME280;37304;52.216;6.874;2023-02-13T20:07:14;103267.28;;;5.13;100.00
51229;BME280;37304;52.216;6.874;2023-02-13T20:12:15;103270.25;;;5.02;100.00
51229;BME280;37304;52.216;6.874;2023-02-13T20:17:15;103269.25;;;4.99;100.00
51229;BME280;37304;52.216;6.874;2023-02-13T20:22:17;103272.13;;;4.87;100.00
51229;BME280;37304;52.216;6.874;2023-02-13T20:27:17;103275.44;;;4.84;100.00
51229;BME280;37304;52.216;6.874;2023-02-13T20:32:18;103277.13;;;4.84;100.00
51229;BME280;37304;52.216;6.874;2023-02-13T20:37:18;103280.59;;;4.84;100.00
51229;BME280;37304;52.216;6.874;2023-02-13T20:42:19;103283.53;;;4.74;100.00
51229;BME280;37304;52.216;6.874;2023-02-13T20:47:19;103287.88;;;4.75;100.00
51229;BME280;37304;52.216;6.874;2023-02-13T20:52:20;103284.22;;;4.70;100.00
51229;BME280;37304;52.216;6.874;2023-02-13T20:57:20;103280.41;;;4.61;100.00
51229;BME280;37304;52.216;6.874;2023-02-13T21:02:20;103287.97;;;4.58;100.00
51229;BME280;37304;52.216;6.874;2023-02-13T21:07:23;103286.22;;;4.57;100.00
51229;BME280;37304;52.216;6.874;2023-02-13T21:12:23;103290.94;;;4.48;100.00
51229;BME280;37304;52.216;6.874;2023-02-13T21:17:24;103288.06;;;4.42;100.00
51229;BME280;37304;52.216;6.874;2023-02-13T21:22:24;103291.34;;;4.39;100.00
51229;BME280;37304;52.216;6.874;2023-02-13T21:27:25;103300.84;;;4.40;100.00
51229;BME280;37304;52.216;6.874;2023-02-13T21:32:25;103292.75;;;4.32;100.00
51229;BME280;37304;52.216;6.874;2023-02-13T21:37:25;103291.94;;;4.33;100.00
51229;BME280;37304;52.216;6.874;2023-02-13T21:42:26;103287.28;;;4.26;100.00
51229;BME280;37304;52.216;6.874;2023-02-13T21:47:26;103286.03;;;4.18;100.00
51229;BME280;37304;52.216;6.874;2023-02-13T21:52:26;103282.19;;;4.10;100.00
51229;BME280;37304;52.216;6.874;2023-02-13T21:57:27;103275.72;;;4.00;100.00
51229;BME280;37304;52.216;6.874;2023-02-13T22:02:27;103273.97;;;3.99;100.00
51229;BME280;37304;52.216;6.874;2023-02-13T22:07:28;103271.28;;;3.97;100.00
51229;BME280;37304;52.216;6.874;2023-02-13T22:12:29;103277.34;;;3.81;100.00
51229;BME280;37304;52.216;6.874;2023-02-13T22:17:29;103262.34;;;3.72;100.00
51229;BME280;37304;52.216;6.874;2023-02-13T22:22:33;103268.22;;;3.70;100.00
51229;BME280;37304;52.216;6.874;2023-02-13T22:27:34;103267.66;;;3.75;100.00
51229;BME280;37304;52.216;6.874;2023-02-13T22:32:34;103275.44;;;3.77;100.00
51229;BME280;37304;52.216;6.874;2023-02-13T22:37:35;103271.53;;;3.67;100.00
51229;BME280;37304;52.216;6.874;2023-02-13T22:42:36;103274.16;;;3.69;100.00
51229;BME280;37304;52.216;6.874;2023-02-13T22:47:36;103277.69;;;3.71;100.00
51229;BME280;37304;52.216;6.874;2023-02-13T22:52:36;103276.06;;;3.73;100.00
51229;BME280;37304;52.216;6.874;2023-02-13T22:57:37;103274.16;;;3.69;100.00
51229;BME280;37304;52.216;6.874;2023-02-13T23:02:37;103269.56;;;3.63;100.00
51229;BME280;37304;52.216;6.874;2023-02-13T23:07:38;103273.28;;;3.52;100.00
51229;BME280;37304;52.216;6.874;2023-02-13T23:12:38;103265.88;;;3.58;100.00
51229;BME280;37304;52.216;6.874;2023-02-13T23:17:41;103257.28;;;3.57;100.00
51229;BME280;37304;52.216;6.874;2023-02-13T23:23:00;103262.50;;;3.59;100.00
51229;BME280;37304;52.216;6.874;2023-02-13T23:28:03;103262.50;;;3.59;100.00
51229;BME280;37304;52.216;6.874;2023-02-13T23:33:04;103260.56;;;3.55;100.00
51229;BME280;37304;52.216;6.874;2023-02-13T23:38:04;103256.25;;;3.54;100.00
51229;BME280;37304;52.216;6.874;2023-02-13T23:43:05;103262.03;;;3.49;100.00
51229;BME280;37304;52.216;6.874;2023-02-13T23:48:06;103253.13;;;3.43;100.00
51229;BME280;37304;52.216;6.874;2023-02-13T23:53:06;103260.75;;;3.41;100.00
51229;BME280;37304;52.216;6.874;2023-02-13T23:58:07;103258.13;;;3.40;100.00
